Ever Diamond — 3FQS8 — position and weather

sailwx.info

Track history (hours):
 
Tides and Currents Weather Stations Pressure Air Temp Water Temp Dewpoint Dewpoint Depression Visibility Wind Speed Wind Dir Waves Ship Positions

Ever Diamond

Last reported at 2014-Aug-25 22:00 UTC. Time now 2014-Aug-29 08:06 UTC.
Position N 47°12' W 167°24'.

Type: Ship (hazmat cat D). MMSI: 354893000.

Wind from 260 at 16 knots

Waves 1.0 meters (3 feet), 1 second period

Barometer 1028.0 mb
Air temperature 13.9 ° C
Visibility: greater than 10.8 NM
Dewpoint 13.0 ° C
Water temperature 13.0 ° C

Date/timePositionNaut miles runAvg speedWind from/ knotsBaromVisibWave heightAir tempDewpointWater temp
2014-Aug-25 22:00N 47°12' W 167°24'   260 / 161028.010.8 1.013.913.013.0
2014-Aug-20 15:00N 39°24' W 126°18'10313.9 350 / 281015.010.8 1.518.118.017.0
2014-Aug-20 07:33N 38°33' W 124°22'1414.6
2014-Aug-20 06:33N 38°26' W 124°07'1514.9
2014-Aug-20 05:33N 38°18' W 123°50'1514.7
2014-Aug-20 04:33N 38°10' W 123°35'1413.7
2014-Aug-20 03:33N 38°07' W 123°18'1414.4
2014-Aug-20 02:33N 37°57' W 123°05'1414.5
2014-Aug-20 01:33N 37°50' W 122°48'1212.1
2014-Aug-20 00:33N 37°47' W 122°33'1010.3
2014-Aug-19 23:33N 37°48' W 122°20'0 0.0
2014-Aug-19 22:31N 37°48' W 122°20'0 0.0
2014-Aug-19 21:31N 37°48' W 122°20'0 0.0
2014-Aug-19 20:31N 37°48' W 122°20'0 0.0
2014-Aug-19 19:31N 37°48' W 122°20'0 0.0
2014-Aug-19 18:32N 37°48' W 122°20'0 0.0
2014-Aug-19 17:32N 37°48' W 122°20'0 0.0
2014-Aug-19 16:32N 37°48' W 122°20'0 0.0
2014-Aug-19 15:32N 37°48' W 122°20'0 0.0
2014-Aug-19 14:32N 37°48' W 122°20'0 0.0
2014-Aug-19 13:32N 37°48' W 122°20'1 0.6
2014-Aug-19 12:33N 37°49' W 122°20'7 7.3
2014-Aug-19 11:33N 37°49' W 122°29'1211.6
2014-Aug-19 10:33N 37°42' W 122°40'1212.3
2014-Aug-19 09:33N 37°30' W 122°40'1212.1
2014-Aug-19 08:33N 37°18' W 122°40'1212.4
2014-Aug-19 07:33N 37°05' W 122°40'1312.6
2014-Aug-19 06:33N 36°53' W 122°40'1212.5
2014-Aug-19 05:33N 36°40' W 122°39'1312.6
2014-Aug-19 04:33N 36°28' W 122°36'1312.5
2014-Aug-19 03:32N 36°15' W 122°33'1313.1
2014-Aug-19 02:33N 36°04' W 122°27'1313.5
2014-Aug-19 01:33N 35°51' W 122°19'1413.8
2014-Aug-19 00:33N 35°39' W 122°11'1413.8
2014-Aug-18 23:33N 35°27' W 122°04'1414.1
2014-Aug-18 22:33N 35°14' W 121°56'1414.2
2014-Aug-18 21:33N 35°01' W 121°49'1312.5
2014-Aug-18 20:33N 34°50' W 121°43'1 0.7
2014-Aug-18 19:33N 34°51' W 121°43'1 0.9
2014-Aug-18 18:31N 34°51' W 121°43'2 1.6
2014-Aug-18 17:33N 34°51' W 121°42'2418.0
2014-Aug-18 16:13N 34°30' W 121°27'1219.1
2014-Aug-18 15:33N 34°18' W 121°21'1616.0
2014-Aug-18 14:34N 34°04' W 121°12'1120.0
2014-Aug-18 14:00N 33°54' W 121°06'3 5.8 320 / 261013.0 5.4 1.516.916.015.0
2014-Aug-18 13:33N 33°52' W 121°04'1413.7
2014-Aug-18 12:33N 33°42' W 120°54'1413.9
2014-Aug-18 11:33N 33°34' W 120°40'1414.0
2014-Aug-18 10:33N 33°26' W 120°26'1312.6
2014-Aug-18 09:33N 33°24' W 120°11'1413.6
2014-Aug-18 08:33N 33°27' W 119°55'1313.3
2014-Aug-18 07:33N 33°31' W 119°40'1413.8
2014-Aug-18 06:33N 33°34' W 119°23'1514.3
2014-Aug-18 05:32N 33°37' W 119°06'1111.6
2014-Aug-18 04:34N 33°38' W 118°53'1211.5
2014-Aug-18 03:34N 33°38' W 118°39'1211.7
2014-Aug-18 02:34N 33°38' W 118°25'9 9.4
2014-Aug-18 01:34N 33°42' W 118°15'3 2.6
2014-Aug-18 00:28N 33°45' W 118°16'0 0.0
2014-Aug-17 18:33N 33°45' W 118°16'0 0.0
2014-Aug-17 17:33N 33°45' W 118°16'0 0.0
2014-Aug-17 16:33N 33°45' W 118°16'0 0.0
2014-Aug-17 15:33N 33°45' W 118°16'0 0.0
2014-Aug-17 14:33N 33°45' W 118°16'0 0.0
2014-Aug-17 13:33N 33°45' W 118°16'0 0.0
2014-Aug-17 12:33N 33°45' W 118°16'0 0.3
2014-Aug-17 11:33N 33°44' W 118°17'7 7.4
2014-Aug-17 10:33N 33°38' W 118°12'9 9.3
2014-Aug-17 09:33N 33°30' W 118°07'1111.2
2014-Aug-17 08:33N 33°19' W 118°03'1111.2
2014-Aug-17 07:33N 33°08' W 118°03'1111.2
2014-Aug-17 06:33N 32°57' W 118°02'1111.5
2014-Aug-17 05:33N 32°45' W 118°02'1110.9
2014-Aug-17 04:33N 32°34' W 118°01'1111.0
2014-Aug-17 03:33N 32°23' W 118°01'1110.6
2014-Aug-17 02:33N 32°13' W 118°00'10 9.7
2014-Aug-17 01:33N 32°03' W 117°60'5 5.2
2014-Aug-17 00:33N 31°58' W 117°59'6 5.8
2014-Aug-16 23:33N 31°53' W 117°56'8 7.7
2014-Aug-16 22:33N 31°46' W 117°52'8 7.8
2014-Aug-16 21:33N 31°39' W 117°48'7 6.9
2014-Aug-16 20:33N 31°33' W 117°44'8 8.1
2014-Aug-16 19:33N 31°25' W 117°40'1414.5
2014-Aug-16 18:33N 31°12' W 117°33'1714.2
2014-Aug-16 17:21N 30°57' W 117°24'1114.0
2014-Aug-16 16:33N 30°47' W 117°18'1414.2
2014-Aug-16 15:33N 30°34' W 117°11'1119.7
2014-Aug-16 15:00N 30°24' W 117°06'3 7.8 330 / 221015.010.8 2.021.921.021.9
2014-Aug-16 14:33N 30°21' W 117°04'1614.4
2014-Aug-16 13:26N 30°07' W 116°55'  
Track history (hours):
 
Tides and Currents Weather Stations Pressure Air Temp Water Temp Dewpoint Dewpoint Depression Visibility Wind Speed Wind Dir Waves Ship Positions

Ever Diamond

Last reported at 2014-Aug-25 22:00 UTC. Time now 2014-Aug-29 08:06 UTC.
Position N 47°12' W 167°24'.

Type: Ship (hazmat cat D). MMSI: 354893000.

Wind from 260 at 16 knots

Waves 1.0 meters (3 feet), 1 second period

Barometer 1028.0 mb
Air temperature 13.9 ° C
Visibility: greater than 10.8 NM
Dewpoint 13.0 ° C
Water temperature 13.0 ° C

Date/timePositionNaut miles runAvg speedWind from/ knotsBaromVisibWave heightAir tempDewpointWater temp
2014-Aug-25 22:00N 47°12' W 167°24'   260 / 161028.010.8 1.013.913.013.0
2014-Aug-20 15:00N 39°24' W 126°18'10313.9 350 / 281015.010.8 1.518.118.017.0
2014-Aug-20 07:33N 38°33' W 124°22'1414.6
2014-Aug-20 06:33N 38°26' W 124°07'1514.9
2014-Aug-20 05:33N 38°18' W 123°50'1514.7
2014-Aug-20 04:33N 38°10' W 123°35'1413.7
2014-Aug-20 03:33N 38°07' W 123°18'1414.4
2014-Aug-20 02:33N 37°57' W 123°05'1414.5
2014-Aug-20 01:33N 37°50' W 122°48'1212.1
2014-Aug-20 00:33N 37°47' W 122°33'1010.3
2014-Aug-19 23:33N 37°48' W 122°20'0 0.0
2014-Aug-19 22:31N 37°48' W 122°20'0 0.0
2014-Aug-19 21:31N 37°48' W 122°20'0 0.0
2014-Aug-19 20:31N 37°48' W 122°20'0 0.0
2014-Aug-19 19:31N 37°48' W 122°20'0 0.0
2014-Aug-19 18:32N 37°48' W 122°20'0 0.0
2014-Aug-19 17:32N 37°48' W 122°20'0 0.0
2014-Aug-19 16:32N 37°48' W 122°20'0 0.0
2014-Aug-19 15:32N 37°48' W 122°20'0 0.0
2014-Aug-19 14:32N 37°48' W 122°20'0 0.0
2014-Aug-19 13:32N 37°48' W 122°20'1 0.6
2014-Aug-19 12:33N 37°49' W 122°20'7 7.3
2014-Aug-19 11:33N 37°49' W 122°29'1211.6
2014-Aug-19 10:33N 37°42' W 122°40'1212.3
2014-Aug-19 09:33N 37°30' W 122°40'1212.1
2014-Aug-19 08:33N 37°18' W 122°40'1212.4
2014-Aug-19 07:33N 37°05' W 122°40'1312.6
2014-Aug-19 06:33N 36°53' W 122°40'1212.5
2014-Aug-19 05:33N 36°40' W 122°39'1312.6
2014-Aug-19 04:33N 36°28' W 122°36'1312.5
2014-Aug-19 03:32N 36°15' W 122°33'1313.1
2014-Aug-19 02:33N 36°04' W 122°27'1313.5
2014-Aug-19 01:33N 35°51' W 122°19'1413.8
2014-Aug-19 00:33N 35°39' W 122°11'1413.8
2014-Aug-18 23:33N 35°27' W 122°04'1414.1
2014-Aug-18 22:33N 35°14' W 121°56'1414.2
2014-Aug-18 21:33N 35°01' W 121°49'1312.5
2014-Aug-18 20:33N 34°50' W 121°43'1 0.7
2014-Aug-18 19:33N 34°51' W 121°43'1 0.9
2014-Aug-18 18:31N 34°51' W 121°43'2 1.6
2014-Aug-18 17:33N 34°51' W 121°42'2418.0
2014-Aug-18 16:13N 34°30' W 121°27'1219.1
2014-Aug-18 15:33N 34°18' W 121°21'1616.0
2014-Aug-18 14:34N 34°04' W 121°12'1120.0
2014-Aug-18 14:00N 33°54' W 121°06'3 5.8 320 / 261013.0 5.4 1.516.916.015.0
2014-Aug-18 13:33N 33°52' W 121°04'1413.7
2014-Aug-18 12:33N 33°42' W 120°54'1413.9
2014-Aug-18 11:33N 33°34' W 120°40'1414.0
2014-Aug-18 10:33N 33°26' W 120°26'1312.6
2014-Aug-18 09:33N 33°24' W 120°11'1413.6
2014-Aug-18 08:33N 33°27' W 119°55'1313.3
2014-Aug-18 07:33N 33°31' W 119°40'1413.8
2014-Aug-18 06:33N 33°34' W 119°23'1514.3
2014-Aug-18 05:32N 33°37' W 119°06'1111.6
2014-Aug-18 04:34N 33°38' W 118°53'1211.5
2014-Aug-18 03:34N 33°38' W 118°39'1211.7
2014-Aug-18 02:34N 33°38' W 118°25'9 9.4
2014-Aug-18 01:34N 33°42' W 118°15'3 2.6
2014-Aug-18 00:28N 33°45' W 118°16'0 0.0
2014-Aug-17 18:33N 33°45' W 118°16'0 0.0
2014-Aug-17 17:33N 33°45' W 118°16'0 0.0
2014-Aug-17 16:33N 33°45' W 118°16'0 0.0
2014-Aug-17 15:33N 33°45' W 118°16'0 0.0
2014-Aug-17 14:33N 33°45' W 118°16'0 0.0
2014-Aug-17 13:33N 33°45' W 118°16'0 0.0
2014-Aug-17 12:33N 33°45' W 118°16'0 0.3
2014-Aug-17 11:33N 33°44' W 118°17'7 7.4
2014-Aug-17 10:33N 33°38' W 118°12'9 9.3
2014-Aug-17 09:33N 33°30' W 118°07'1111.2
2014-Aug-17 08:33N 33°19' W 118°03'1111.2
2014-Aug-17 07:33N 33°08' W 118°03'1111.2
2014-Aug-17 06:33N 32°57' W 118°02'1111.5
2014-Aug-17 05:33N 32°45' W 118°02'1110.9
2014-Aug-17 04:33N 32°34' W 118°01'1111.0
2014-Aug-17 03:33N 32°23' W 118°01'1110.6
2014-Aug-17 02:33N 32°13' W 118°00'10 9.7
2014-Aug-17 01:33N 32°03' W 117°60'5 5.2
2014-Aug-17 00:33N 31°58' W 117°59'6 5.8
2014-Aug-16 23:33N 31°53' W 117°56'8 7.7
2014-Aug-16 22:33N 31°46' W 117°52'8 7.8
2014-Aug-16 21:33N 31°39' W 117°48'7 6.9
2014-Aug-16 20:33N 31°33' W 117°44'8 8.1
2014-Aug-16 19:33N 31°25' W 117°40'1414.5
2014-Aug-16 18:33N 31°12' W 117°33'1714.2
2014-Aug-16 17:21N 30°57' W 117°24'1114.0
2014-Aug-16 16:33N 30°47' W 117°18'1414.2
2014-Aug-16 15:33N 30°34' W 117°11'1119.7
2014-Aug-16 15:00N 30°24' W 117°06'3 7.8 330 / 221015.010.8 2.021.921.021.9
2014-Aug-16 14:33N 30°21' W 117°04'1614.4
2014-Aug-16 13:26N 30°07' W 116°55'  

Dump ship's entire track history